createdAt,value
2019-02-27T00:02:57.680Z,11.60
2019-02-27T00:06:00.887Z,13.53
2019-02-27T00:09:04.114Z,13.77
2019-02-27T00:12:07.240Z,13.30
2019-02-27T00:15:10.768Z,11.10
2019-02-27T00:18:14.072Z,9.17
2019-02-27T00:21:17.251Z,9.10
2019-02-27T00:24:20.568Z,10.33
2019-02-27T00:27:23.863Z,9.53
2019-02-27T00:30:27.067Z,10.67
2019-02-27T00:33:30.335Z,11.97
2019-02-27T00:36:33.459Z,11.53
2019-02-27T00:39:36.616Z,12.43
2019-02-27T00:42:39.717Z,10.20
2019-02-27T00:45:42.915Z,12.60
2019-02-27T00:48:46.022Z,10.50
2019-02-27T00:51:49.226Z,9.40
2019-02-27T00:54:52.313Z,10.00
2019-02-27T00:57:55.495Z,11.33
2019-02-27T01:00:58.688Z,10.60
2019-02-27T01:04:02.517Z,13.67
2019-02-27T01:07:04.958Z,10.07
2019-02-27T01:10:12.008Z,10.03
2019-02-27T01:13:11.758Z,12.90
2019-02-27T01:16:16.957Z,12.13
2019-02-27T01:19:18.047Z,13.60
2019-02-27T01:22:21.245Z,12.53
2019-02-27T01:25:24.431Z,10.40
2019-02-27T01:28:27.740Z,12.40
2019-02-27T01:31:30.942Z,11.27
2019-02-27T01:34:34.037Z,11.40
2019-02-27T01:37:37.224Z,11.37
2019-02-27T01:40:40.440Z,12.07
2019-02-27T01:43:43.620Z,10.63
2019-02-27T01:46:46.794Z,13.63
2019-02-27T01:49:50.011Z,11.87
2019-02-27T01:52:53.209Z,12.33
2019-02-27T01:55:56.947Z,12.77
2019-02-27T01:58:59.692Z,12.83
2019-02-27T02:02:03.461Z,14.60
2019-02-27T02:05:06.187Z,11.60
2019-02-27T02:08:13.459Z,11.63
2019-02-27T02:11:12.567Z,10.50
2019-02-27T02:14:25.583Z,11.03
2019-02-27T02:19:37.356Z,10.70
2019-02-27T02:23:26.107Z,12.23
2019-02-27T02:26:57.054Z,12.23
2019-02-27T02:32:21.389Z,10.10
2019-02-27T02:35:41.531Z,13.83
2019-02-27T02:38:58.933Z,10.00
2019-02-27T02:42:11.685Z,13.77
2019-02-27T02:45:23.267Z,12.63
2019-02-27T02:48:38.243Z,11.57
2019-02-27T02:51:49.686Z,10.27
2019-02-27T02:55:12.718Z,11.43
2019-02-27T02:58:19.840Z,8.80
2019-02-27T03:01:40.533Z,10.67
2019-02-27T03:05:58.537Z,10.40
2019-02-27T03:09:10.652Z,9.57
2019-02-27T03:12:58.940Z,10.10
2019-02-27T03:16:13.693Z,9.10
2019-02-27T03:22:04.557Z,11.53
2019-02-27T03:25:19.600Z,8.50
2019-02-27T03:28:40.620Z,9.33
2019-02-27T03:31:57.823Z,9.27
2019-02-27T03:35:06.705Z,8.83
2019-02-27T03:38:24.115Z,8.83
2019-02-27T03:41:38.659Z,10.73
2019-02-27T03:44:55.792Z,7.60
2019-02-27T03:48:03.578Z,9.03
2019-02-27T03:53:19.956Z,11.07
2019-02-27T03:56:43.543Z,10.50
2019-02-27T04:00:02.236Z,8.97
2019-02-27T04:03:18.182Z,11.50
2019-02-27T04:06:30.523Z,9.53
2019-02-27T04:09:33.825Z,8.27
2019-02-27T04:12:37.001Z,7.97
2019-02-27T04:15:40.121Z,9.07
2019-02-27T04:18:43.292Z,9.23
2019-02-27T04:21:46.499Z,11.83
2019-02-27T04:24:49.709Z,8.53
2019-02-27T04:27:55.665Z,8.60
2019-02-27T04:30:56.016Z,10.50
2019-02-27T04:34:00.250Z,6.97
2019-02-27T04:37:02.260Z,10.23
2019-02-27T04:40:05.658Z,9.73
2019-02-27T04:43:08.862Z,10.57
2019-02-27T04:46:12.042Z,10.57
2019-02-27T04:49:15.267Z,9.13
2019-02-27T04:52:21.975Z,8.53
2019-02-27T04:55:22.851Z,9.90
2019-02-27T04:58:26.059Z,7.10
2019-02-27T05:01:29.347Z,7.40
2019-02-27T05:04:35.275Z,8.73
2019-02-27T05:07:35.635Z,8.50
2019-02-27T05:10:40.611Z,7.60
2019-02-27T05:13:42.027Z,7.90
2019-02-27T05:16:47.182Z,9.33
2019-02-27T05:19:48.326Z,9.03
2019-02-27T05:22:51.616Z,8.23
2019-02-27T05:25:54.935Z,10.83
2019-02-27T05:28:58.251Z,8.33
2019-02-27T05:32:01.385Z,7.73
2019-02-27T05:35:04.864Z,9.20
2019-02-27T05:38:08.011Z,8.70
2019-02-27T05:41:11.191Z,7.87
2019-02-27T05:44:14.373Z,7.53
2019-02-27T05:47:17.473Z,9.20
2019-02-27T05:50:20.656Z,8.07
2019-02-27T05:53:23.868Z,7.27
2019-02-27T05:56:27.063Z,8.27
2019-02-27T05:59:30.348Z,9.00
2019-02-27T06:02:33.544Z,6.73
2019-02-27T06:05:36.856Z,7.80
2019-02-27T06:08:40.021Z,9.73
2019-02-27T06:11:43.143Z,6.60
2019-02-27T06:14:46.314Z,7.07
2019-02-27T06:17:49.874Z,11.93
2019-02-27T06:20:52.920Z,7.80
2019-02-27T06:23:56.017Z,11.80
2019-02-27T06:26:59.200Z,9.00
2019-02-27T06:30:02.399Z,9.43
2019-02-27T06:33:05.719Z,11.53
2019-02-27T06:36:08.898Z,12.23
2019-02-27T06:39:12.091Z,10.77
2019-02-27T06:42:15.352Z,11.57
2019-02-27T06:45:18.491Z,10.20
2019-02-27T06:48:21.676Z,16.20
2019-02-27T06:51:24.862Z,15.73
2019-02-27T06:54:28.091Z,12.80
2019-02-27T06:57:31.273Z,9.33
2019-02-27T07:00:36.669Z,13.20
2019-02-27T07:03:37.770Z,18.70
2019-02-27T07:06:41.211Z,17.40
2019-02-27T07:09:45.811Z,12.30
2019-02-27T07:12:48.664Z,17.50
2019-02-27T07:15:51.859Z,14.60
2019-02-27T07:18:55.141Z,13.50
2019-02-27T07:21:58.660Z,15.00
2019-02-27T07:25:06.418Z,14.90
2019-02-27T07:28:08.472Z,23.63
2019-02-27T07:31:08.427Z,22.07
2019-02-27T07:34:14.264Z,23.97
2019-02-27T07:37:14.820Z,23.23
2019-02-27T07:40:18.016Z,20.20
2019-02-27T07:43:21.101Z,17.67
2019-02-27T07:46:24.304Z,16.70
2019-02-27T07:49:28.371Z,15.37
2019-02-27T07:52:32.620Z,14.47
2019-02-27T07:55:33.790Z,14.47
2019-02-27T07:58:36.988Z,14.20
2019-02-27T08:01:43.678Z,19.17
2019-02-27T08:04:43.266Z,14.73
2019-02-27T08:07:49.065Z,17.27
2019-02-27T08:10:49.762Z,16.53
2019-02-27T08:13:52.960Z,12.43
2019-02-27T08:16:57.934Z,11.67
2019-02-27T08:19:59.326Z,14.53
2019-02-27T08:23:02.567Z,11.83
2019-02-27T08:26:05.847Z,10.20
2019-02-27T08:29:09.029Z,11.20
2019-02-27T08:32:12.247Z,12.03
2019-02-27T08:35:16.705Z,11.93
2019-02-27T08:38:18.616Z,12.57
2019-02-27T08:41:22.023Z,10.10
2019-02-27T08:44:25.199Z,13.20
2019-02-27T08:47:28.587Z,14.67
2019-02-27T08:50:32.358Z,14.80
2019-02-27T08:53:34.895Z,10.30
2019-02-27T08:56:38.091Z,8.23
2019-02-27T08:59:41.279Z,11.00
2019-02-27T09:02:44.495Z,14.37
2019-02-27T09:05:47.946Z,13.20
2019-02-27T09:08:51.085Z,12.07
2019-02-27T09:11:54.359Z,13.40
2019-02-27T09:14:57.500Z,14.03
2019-02-27T09:18:01.729Z,12.60
2019-02-27T09:21:03.844Z,10.83
2019-02-27T09:24:07.081Z,14.57
2019-02-27T09:27:10.335Z,12.97
2019-02-27T09:30:14.540Z,11.33
2019-02-27T09:33:20.017Z,19.50
2019-02-27T09:36:20.752Z,16.10
2019-02-27T09:39:24.051Z,15.97
2019-02-27T09:42:27.247Z,13.60
2019-02-27T09:45:31.484Z,12.07
2019-02-27T09:48:34.964Z,15.00
2019-02-27T09:51:38.143Z,14.27
2019-02-27T09:54:41.362Z,15.23
2019-02-27T09:57:44.488Z,12.73
2019-02-27T10:00:50.912Z,19.67
2019-02-27T10:03:55.335Z,16.60
2019-02-27T10:06:57.389Z,12.17
2019-02-27T10:10:00.668Z,16.77
2019-02-27T10:13:04.117Z,15.87
2019-02-27T10:16:06.958Z,15.90
2019-02-27T10:19:10.098Z,14.67
2019-02-27T10:22:13.263Z,12.97
2019-02-27T10:25:16.476Z,18.47
2019-02-27T10:28:19.677Z,19.63
2019-02-27T10:31:22.858Z,15.57
2019-02-27T10:34:26.038Z,17.03
2019-02-27T10:37:30.316Z,17.43
2019-02-27T10:40:33.559Z,13.80
2019-02-27T10:43:36.791Z,21.03
2019-02-27T10:46:39.967Z,18.03
2019-02-27T10:49:43.155Z,16.03
2019-02-27T10:52:46.348Z,15.00
2019-02-27T10:55:50.042Z,16.60
2019-02-27T10:58:52.743Z,12.67
2019-02-27T11:01:55.949Z,14.73
2019-02-27T11:04:59.844Z,13.67
2019-02-27T11:08:03.063Z,15.10
2019-02-27T11:11:06.265Z,22.77
2019-02-27T11:14:09.417Z,15.33
2019-02-27T11:17:12.524Z,18.37
2019-02-27T11:20:20.425Z,14.93
2019-02-27T11:23:18.911Z,15.03
2019-02-27T11:26:22.113Z,19.90
2019-02-27T11:29:25.402Z,13.43
2019-02-27T11:32:28.684Z,15.23
2019-02-27T11:35:32.031Z,15.40
2019-02-27T11:38:35.136Z,19.87
2019-02-27T11:41:38.237Z,19.83
2019-02-27T11:44:41.392Z,19.53
2019-02-27T11:47:47.757Z,19.60
2019-02-27T11:50:47.687Z,13.30
2019-02-27T11:53:50.852Z,17.00
2019-02-27T11:56:56.283Z,19.57
2019-02-27T11:59:57.373Z,15.43
2019-02-27T12:03:00.721Z,20.30
2019-02-27T12:06:05.331Z,13.27
2019-02-27T12:09:07.346Z,17.80
2019-02-27T12:12:10.630Z,18.07
2019-02-27T12:15:14.803Z,16.83
2019-02-27T12:18:17.966Z,14.83
2019-02-27T12:21:21.137Z,14.37
2019-02-27T12:24:24.532Z,19.47
2019-02-27T12:27:47.809Z,18.57
2019-02-27T12:30:31.261Z,17.83
2019-02-27T12:33:34.711Z,16.03
2019-02-27T12:36:37.841Z,20.13
2019-02-27T12:39:41.011Z,22.13
2019-02-27T12:42:44.231Z,16.70
2019-02-27T12:45:47.399Z,22.13
2019-02-27T12:48:50.662Z,16.63
2019-02-27T12:51:53.759Z,20.00
2019-02-27T12:54:59.168Z,18.50
2019-02-27T12:58:00.084Z,15.70
2019-02-27T13:01:03.272Z,16.87
2019-02-27T13:04:06.472Z,18.53
2019-02-27T13:07:10.760Z,17.73
2019-02-27T13:10:15.367Z,16.57
2019-02-27T13:13:18.531Z,20.17
2019-02-27T13:16:21.715Z,15.03
2019-02-27T13:19:24.891Z,17.40
2019-02-27T13:22:29.191Z,16.77
2019-02-27T13:25:31.351Z,16.23
2019-02-27T13:28:34.487Z,19.50
2019-02-27T13:31:37.693Z,17.90
2019-02-27T13:34:40.971Z,15.03
2019-02-27T13:37:44.762Z,14.73
2019-02-27T13:40:47.364Z,17.17
2019-02-27T13:43:50.663Z,18.73
2019-02-27T13:46:54.493Z,15.47
2019-02-27T13:49:57.047Z,12.90
2019-02-27T13:53:00.267Z,13.00
2019-02-27T13:56:03.434Z,10.80
2019-02-27T13:59:07.445Z,14.73
2019-02-27T14:02:11.284Z,17.53
2019-02-27T14:05:12.820Z,12.07
2019-02-27T14:08:16.111Z,12.17
2019-02-27T14:11:19.286Z,9.87
2019-02-27T14:14:22.399Z,11.27
2019-02-27T14:17:25.597Z,15.60
2019-02-27T14:20:29.222Z,11.23
2019-02-27T14:23:31.997Z,12.43
2019-02-27T14:26:35.311Z,13.97
2019-02-27T14:29:38.566Z,12.60
2019-02-27T14:32:41.682Z,17.50
2019-02-27T14:35:44.859Z,16.33
2019-02-27T14:38:48.048Z,14.60
2019-02-27T14:41:51.404Z,14.83
2019-02-27T14:44:54.443Z,11.90
2019-02-27T14:47:59.551Z,11.97
2019-02-27T14:51:00.728Z,14.60
2019-02-27T14:54:03.857Z,12.47
2019-02-27T14:57:07.024Z,13.13
2019-02-27T15:00:14.121Z,13.40
2019-02-27T15:03:17.312Z,11.40
2019-02-27T15:06:21.423Z,15.40
2019-02-27T15:09:24.603Z,14.83
2019-02-27T15:12:27.700Z,16.40
2019-02-27T15:15:31.029Z,13.77
2019-02-27T15:18:34.389Z,13.63
2019-02-27T15:21:37.499Z,14.57
2019-02-27T15:24:40.727Z,16.60
2019-02-27T15:27:43.923Z,17.70
2019-02-27T15:30:47.378Z,14.97
2019-02-27T15:33:50.194Z,13.83
2019-02-27T15:36:53.385Z,14.73
2019-02-27T15:39:56.562Z,14.07
2019-02-27T15:42:59.797Z,14.93
2019-02-27T15:46:03.014Z,13.67
2019-02-27T15:49:06.191Z,13.37
2019-02-27T15:52:09.340Z,15.57
2019-02-27T15:55:12.920Z,16.67
2019-02-27T15:58:16.026Z,14.80
2019-02-27T16:01:19.143Z,13.03
2019-02-27T16:04:22.320Z,11.70
2019-02-27T16:07:25.628Z,13.07
2019-02-27T16:10:28.884Z,12.63
2019-02-27T16:13:34.676Z,14.63
2019-02-27T16:16:35.304Z,11.37
2019-02-27T16:19:38.592Z,12.07
2019-02-27T16:22:41.716Z,11.17
2019-02-27T16:25:44.916Z,13.07
2019-02-27T16:28:48.978Z,11.30
2019-02-27T16:31:51.297Z,12.23
2019-02-27T16:34:54.469Z,12.50
2019-02-27T16:37:58.017Z,11.33
2019-02-27T16:41:00.864Z,10.67
2019-02-27T16:44:04.075Z,10.10
2019-02-27T16:47:07.252Z,15.47
2019-02-27T16:50:13.519Z,15.07
2019-02-27T16:53:19.271Z,12.07
2019-02-27T16:56:19.812Z,16.00
2019-02-27T16:59:23.019Z,19.20
2019-02-27T17:02:26.195Z,15.10
2019-02-27T17:05:31.705Z,15.00
2019-02-27T17:08:33.021Z,16.07
2019-02-27T17:11:35.775Z,13.03
2019-02-27T17:14:39.426Z,13.03
2019-02-27T17:17:42.079Z,14.50
2019-02-27T17:20:46.590Z,13.37
2019-02-27T17:23:48.493Z,18.73
2019-02-27T17:26:51.699Z,17.97
2019-02-27T17:29:59.629Z,16.83
2019-02-27T17:32:58.046Z,19.33
2019-02-27T17:36:01.269Z,14.43
2019-02-27T17:39:05.503Z,23.13
2019-02-27T17:42:08.707Z,17.10
2019-02-27T17:45:13.848Z,16.50
2019-02-27T17:48:16.891Z,14.60
2019-02-27T17:51:20.104Z,11.87
2019-02-27T17:54:23.287Z,19.90
2019-02-27T17:57:26.481Z,14.13
2019-02-27T18:00:33.791Z,15.83
2019-02-27T18:03:41.518Z,20.47
2019-02-27T18:06:40.360Z,17.00
2019-02-27T18:09:43.654Z,22.97
2019-02-27T18:12:46.932Z,17.53
2019-02-27T18:15:53.156Z,13.60
2019-02-27T18:18:53.267Z,18.53
2019-02-27T18:21:56.443Z,23.17
2019-02-27T18:24:59.779Z,22.53
2019-02-27T18:28:02.920Z,20.23
2019-02-27T18:31:06.132Z,16.33
2019-02-27T18:34:09.362Z,14.50
2019-02-27T18:37:14.497Z,20.10
2019-02-27T18:40:15.832Z,15.00
2019-02-27T18:43:19.112Z,17.17
2019-02-27T18:46:24.714Z,16.17
2019-02-27T18:49:25.587Z,17.00
2019-02-27T18:52:28.770Z,22.20
2019-02-27T18:55:32.116Z,15.00
2019-02-27T18:58:35.371Z,14.67
2019-02-27T19:01:41.321Z,21.07
2019-02-27T19:04:41.686Z,14.30
2019-02-27T19:07:44.921Z,17.80
2019-02-27T19:10:48.076Z,17.17
2019-02-27T19:13:51.260Z,14.20
2019-02-27T19:16:54.923Z,17.70
2019-02-27T19:19:57.558Z,15.60
2019-02-27T19:23:00.751Z,18.03
2019-02-27T19:26:06.428Z,25.50
2019-02-27T19:29:07.036Z,20.03
2019-02-27T19:32:10.324Z,18.27
2019-02-27T19:35:13.532Z,24.23
2019-02-27T19:38:16.841Z,23.43
2019-02-27T19:41:19.995Z,20.87
2019-02-27T19:44:23.207Z,21.93
2019-02-27T19:47:26.400Z,17.87
2019-02-27T19:50:29.710Z,24.10
2019-02-27T19:53:32.904Z,20.53
2019-02-27T19:56:36.264Z,18.57
2019-02-27T19:59:39.607Z,20.10
2019-02-27T20:02:42.787Z,17.73
2019-02-27T20:05:46.007Z,15.70
2019-02-27T20:08:49.149Z,18.07
2019-02-27T20:11:52.295Z,16.70
2019-02-27T20:14:55.495Z,19.27
2019-02-27T20:17:58.764Z,20.03
2019-02-27T20:21:02.316Z,15.70
2019-02-27T20:24:14.226Z,15.80
2019-02-27T20:27:08.632Z,19.67
2019-02-27T20:30:15.338Z,14.37
2019-02-27T20:33:18.550Z,17.30
2019-02-27T20:36:21.736Z,15.27
2019-02-27T20:39:25.947Z,15.43
2019-02-27T20:42:29.112Z,12.60
2019-02-27T20:45:32.363Z,12.83
2019-02-27T20:48:39.532Z,17.90
2019-02-27T20:51:39.982Z,19.37
2019-02-27T20:54:43.201Z,14.90
2019-02-27T20:57:46.307Z,17.20
2019-02-27T21:00:49.395Z,19.40
2019-02-27T21:03:52.491Z,14.20
2019-02-27T21:06:55.694Z,20.77
2019-02-27T21:09:59.006Z,12.83
2019-02-27T21:13:02.308Z,17.97
2019-02-27T21:16:09.337Z,16.00
2019-02-27T21:19:08.731Z,24.93
2019-02-27T21:22:11.893Z,17.07
2019-02-27T21:25:15.734Z,14.43
2019-02-27T21:28:21.179Z,13.47
2019-02-27T21:31:26.613Z,16.63
2019-02-27T21:34:24.843Z,13.97
2019-02-27T21:37:28.049Z,14.43
2019-02-27T21:40:33.395Z,14.23
2019-02-27T21:43:34.459Z,16.20
2019-02-27T21:46:37.571Z,19.07
2019-02-27T21:49:40.719Z,16.00
2019-02-27T21:52:43.927Z,12.23
2019-02-27T21:55:47.127Z,13.33
2019-02-27T21:58:50.458Z,19.43
2019-02-27T22:01:56.305Z,15.07
2019-02-27T22:04:56.823Z,15.67
2019-02-27T22:08:00.102Z,14.97
2019-02-27T22:11:03.409Z,18.47
2019-02-27T22:14:06.584Z,15.67
2019-02-27T22:17:09.690Z,16.50
2019-02-27T22:20:12.930Z,18.70
2019-02-27T22:23:16.091Z,13.43
2019-02-27T22:26:19.267Z,14.47
2019-02-27T22:29:25.258Z,14.53
2019-02-27T22:32:25.656Z,18.60
2019-02-27T22:35:30.359Z,15.00
2019-02-27T22:38:32.022Z,14.17
2019-02-27T22:41:35.163Z,16.40
2019-02-27T22:44:38.312Z,13.80
2019-02-27T22:47:41.460Z,14.20
2019-02-27T22:50:44.531Z,15.67
2019-02-27T22:53:47.725Z,15.10
2019-02-27T22:56:51.720Z,16.13
2019-02-27T22:59:54.085Z,14.60
2019-02-27T23:02:57.203Z,15.07
2019-02-27T23:06:00.387Z,13.83
2019-02-27T23:09:04.583Z,13.43
2019-02-27T23:12:08.538Z,14.60
2019-02-27T23:15:10.890Z,15.97
2019-02-27T23:18:14.099Z,15.07
2019-02-27T23:21:17.295Z,15.43
2019-02-27T23:24:20.516Z,16.10
2019-02-27T23:27:25.957Z,14.13
2019-02-27T23:30:26.858Z,15.73
2019-02-27T23:33:35.867Z,15.27
2019-02-27T23:36:33.967Z,14.17
2019-02-27T23:39:39.605Z,13.60
2019-02-27T23:42:40.159Z,14.10
2019-02-27T23:45:44.500Z,13.07
2019-02-27T23:48:46.649Z,15.27
2019-02-27T23:51:49.960Z,12.57
2019-02-27T23:54:53.136Z,14.43
2019-02-27T23:57:57.765Z,18.20
